sensor_id;sensor_type;location;lat;lon;timestamp;P1;P2;P0
70249;PMS5003;57644;48.416;-123.374;2022-11-15T00:02:12;11;10;
70249;PMS5003;57644;48.416;-123.374;2022-11-15T00:04:42;10;10;
70249;PMS5003;57644;48.416;-123.374;2022-11-15T00:07:12;10;10;
70249;PMS5003;57644;48.416;-123.374;2022-11-15T00:09:43;10;10;
70249;PMS5003;57644;48.416;-123.374;2022-11-15T00:12:14;9;9;
70249;PMS5003;57644;48.416;-123.374;2022-11-15T00:14:44;11;11;
70249;PMS5003;57644;48.416;-123.374;2022-11-15T00:17:14;11;11;
70249;PMS5003;57644;48.416;-123.374;2022-11-15T00:19:44;13;12;
70249;PMS5003;57644;48.416;-123.374;2022-11-15T00:22:15;11;11;
70249;PMS5003;57644;48.416;-123.374;2022-11-15T00:24:46;12;12;
70249;PMS5003;57644;48.416;-123.374;2022-11-15T00:27:16;12;12;
70249;PMS5003;57644;48.416;-123.374;2022-11-15T00:29:46;10;10;
70249;PMS5003;57644;48.416;-123.374;2022-11-15T00:32:17;10;9;
70249;PMS5003;57644;48.416;-123.374;2022-11-15T00:34:48;12;10;
70249;PMS5003;57644;48.416;-123.374;2022-11-15T00:37:18;8;8;
70249;PMS5003;57644;48.416;-123.374;2022-11-15T00:39:49;10;10;
70249;PMS5003;57644;48.416;-123.374;2022-11-15T00:42:19;10;10;
70249;PMS5003;57644;48.416;-123.374;2022-11-15T00:44:50;12;11;
70249;PMS5003;57644;48.416;-123.374;2022-11-15T00:47:20;10;9;
70249;PMS5003;57644;48.416;-123.374;2022-11-15T00:49:51;10;10;
70249;PMS5003;57644;48.416;-123.374;2022-11-15T00:52:22;10;9;
70249;PMS5003;57644;48.416;-123.374;2022-11-15T00:54:52;9;9;
70249;PMS5003;57644;48.416;-123.374;2022-11-15T00:57:23;12;11;
70249;PMS5003;57644;48.416;-123.374;2022-11-15T00:59:53;11;10;
70249;PMS5003;57644;48.416;-123.374;2022-11-15T01:02:24;9;9;
70249;PMS5003;57644;48.416;-123.374;2022-11-15T01:04:54;11;11;
70249;PMS5003;57644;48.416;-123.374;2022-11-15T01:07:25;10;10;
70249;PMS5003;57644;48.416;-123.374;2022-11-15T01:09:56;10;9;
70249;PMS5003;57644;48.416;-123.374;2022-11-15T01:12:26;12;10;
70249;PMS5003;57644;48.416;-123.374;2022-11-15T01:14:57;9;9;
70249;PMS5003;57644;48.416;-123.374;2022-11-15T01:17:28;11;11;
70249;PMS5003;57644;48.416;-123.374;2022-11-15T01:19:57;15;14;
70249;PMS5003;57644;48.416;-123.374;2022-11-15T01:22:28;11;11;
70249;PMS5003;57644;48.416;-123.374;2022-11-15T01:24:58;11;10;
70249;PMS5003;57644;48.416;-123.374;2022-11-15T01:27:29;13;13;
70249;PMS5003;57644;48.416;-123.374;2022-11-15T01:29:59;13;12;
70249;PMS5003;57644;48.416;-123.374;2022-11-15T01:32:30;9;9;
70249;PMS5003;57644;48.416;-123.374;2022-11-15T01:35:00;13;11;
70249;PMS5003;57644;48.416;-123.374;2022-11-15T01:37:31;10;10;
70249;PMS5003;57644;48.416;-123.374;2022-11-15T01:40:02;11;11;
70249;PMS5003;57644;48.416;-123.374;2022-11-15T01:42:33;12;12;
70249;PMS5003;57644;48.416;-123.374;2022-11-15T01:45:03;14;13;
70249;PMS5003;57644;48.416;-123.374;2022-11-15T01:47:35;10;10;
70249;PMS5003;57644;48.416;-123.374;2022-11-15T01:50:04;10;10;
70249;PMS5003;57644;48.416;-123.374;2022-11-15T01:52:39;17;15;
70249;PMS5003;57644;48.416;-123.374;2022-11-15T01:55:07;13;12;
70249;PMS5003;57644;48.416;-123.374;2022-11-15T01:57:36;13;13;
70249;PMS5003;57644;48.416;-123.374;2022-11-15T02:00:06;11;10;
70249;PMS5003;57644;48.416;-123.374;2022-11-15T02:02:37;12;12;
70249;PMS5003;57644;48.416;-123.374;2022-11-15T02:05:07;15;14;
70249;PMS5003;57644;48.416;-123.374;2022-11-15T02:07:37;14;14;
70249;PMS5003;57644;48.416;-123.374;2022-11-15T02:10:09;13;12;
70249;PMS5003;57644;48.416;-123.374;2022-11-15T02:12:38;15;15;
70249;PMS5003;57644;48.416;-123.374;2022-11-15T02:15:09;15;14;
70249;PMS5003;57644;48.416;-123.374;2022-11-15T02:17:45;17;17;
70249;PMS5003;57644;48.416;-123.374;2022-11-15T02:20:17;15;15;
70249;PMS5003;57644;48.416;-123.374;2022-11-15T02:22:43;16;15;
70249;PMS5003;57644;48.416;-123.374;2022-11-15T02:27:45;17;16;
70249;PMS5003;57644;48.416;-123.374;2022-11-15T02:32:44;15;14;
70249;PMS5003;57644;48.416;-123.374;2022-11-15T02:35:16;13;12;
70249;PMS5003;57644;48.416;-123.374;2022-11-15T02:37:44;14;14;
70249;PMS5003;57644;48.416;-123.374;2022-11-15T02:40:17;12;12;
70249;PMS5003;57644;48.416;-123.374;2022-11-15T02:42:47;10;10;
70249;PMS5003;57644;48.416;-123.374;2022-11-15T02:45:16;14;14;
70249;PMS5003;57644;48.416;-123.374;2022-11-15T02:47:45;13;13;
70249;PMS5003;57644;48.416;-123.374;2022-11-15T02:50:17;14;14;
70249;PMS5003;57644;48.416;-123.374;2022-11-15T02:52:47;15;15;
70249;PMS5003;57644;48.416;-123.374;2022-11-15T02:57:51;16;16;
70249;PMS5003;57644;48.416;-123.374;2022-11-15T03:00:17;17;15;
70249;PMS5003;57644;48.416;-123.374;2022-11-15T03:05:19;18;17;
70249;PMS5003;57644;48.416;-123.374;2022-11-15T03:07:51;22;21;
70249;PMS5003;57644;48.416;-123.374;2022-11-15T03:10:20;24;23;
70249;PMS5003;57644;48.416;-123.374;2022-11-15T03:12:51;31;26;
70249;PMS5003;57644;48.416;-123.374;2022-11-15T03:15:21;22;21;
70249;PMS5003;57644;48.416;-123.374;2022-11-15T03:17:51;16;16;
70249;PMS5003;57644;48.416;-123.374;2022-11-15T03:20:20;14;14;
70249;PMS5003;57644;48.416;-123.374;2022-11-15T03:22:51;14;13;
70249;PMS5003;57644;48.416;-123.374;2022-11-15T03:25:22;13;13;
70249;PMS5003;57644;48.416;-123.374;2022-11-15T03:27:52;12;12;
70249;PMS5003;57644;48.416;-123.374;2022-11-15T03:30:23;13;12;
70249;PMS5003;57644;48.416;-123.374;2022-11-15T03:32:54;13;13;
70249;PMS5003;57644;48.416;-123.374;2022-11-15T03:35:24;14;14;
70249;PMS5003;57644;48.416;-123.374;2022-11-15T03:37:54;15;15;
70249;PMS5003;57644;48.416;-123.374;2022-11-15T03:40:25;12;11;
70249;PMS5003;57644;48.416;-123.374;2022-11-15T03:42:56;12;12;
70249;PMS5003;57644;48.416;-123.374;2022-11-15T03:45:26;13;12;
70249;PMS5003;57644;48.416;-123.374;2022-11-15T03:47:59;12;11;
70249;PMS5003;57644;48.416;-123.374;2022-11-15T03:50:26;12;11;
70249;PMS5003;57644;48.416;-123.374;2022-11-15T03:52:56;14;14;
70249;PMS5003;57644;48.416;-123.374;2022-11-15T03:55:27;13;12;
70249;PMS5003;57644;48.416;-123.374;2022-11-15T03:57:58;13;13;
70249;PMS5003;57644;48.416;-123.374;2022-11-15T04:00:28;11;11;
70249;PMS5003;57644;48.416;-123.374;2022-11-15T04:02:58;12;11;
70249;PMS5003;57644;48.416;-123.374;2022-11-15T04:05:29;14;14;
70249;PMS5003;57644;48.416;-123.374;2022-11-15T04:07:59;14;13;
70249;PMS5003;57644;48.416;-123.374;2022-11-15T04:10:30;12;11;
70249;PMS5003;57644;48.416;-123.374;2022-11-15T04:13:01;12;11;
70249;PMS5003;57644;48.416;-123.374;2022-11-15T04:15:31;8;8;
70249;PMS5003;57644;48.416;-123.374;2022-11-15T04:18:01;11;11;
70249;PMS5003;57644;48.416;-123.374;2022-11-15T04:20:32;11;11;
70249;PMS5003;57644;48.416;-123.374;2022-11-15T04:23:03;13;12;
70249;PMS5003;57644;48.416;-123.374;2022-11-15T04:25:33;13;12;
70249;PMS5003;57644;48.416;-123.374;2022-11-15T04:28:03;12;12;
70249;PMS5003;57644;48.416;-123.374;2022-11-15T04:30:33;19;18;
70249;PMS5003;57644;48.416;-123.374;2022-11-15T04:33:04;13;13;
70249;PMS5003;57644;48.416;-123.374;2022-11-15T04:35:34;11;11;
70249;PMS5003;57644;48.416;-123.374;2022-11-15T04:38:06;12;12;
70249;PMS5003;57644;48.416;-123.374;2022-11-15T04:40:35;10;10;
70249;PMS5003;57644;48.416;-123.374;2022-11-15T04:43:05;15;15;
70249;PMS5003;57644;48.416;-123.374;2022-11-15T04:45:39;17;16;
70249;PMS5003;57644;48.416;-123.374;2022-11-15T04:48:06;13;13;
70249;PMS5003;57644;48.416;-123.374;2022-11-15T04:50:37;14;13;
70249;PMS5003;57644;48.416;-123.374;2022-11-15T04:53:07;20;20;
70249;PMS5003;57644;48.416;-123.374;2022-11-15T04:55:37;14;14;
70249;PMS5003;57644;48.416;-123.374;2022-11-15T04:58:08;13;13;
70249;PMS5003;57644;48.416;-123.374;2022-11-15T05:00:38;14;14;
70249;PMS5003;57644;48.416;-123.374;2022-11-15T05:03:09;15;15;
70249;PMS5003;57644;48.416;-123.374;2022-11-15T05:05:39;20;19;
70249;PMS5003;57644;48.416;-123.374;2022-11-15T05:08:09;15;15;
70249;PMS5003;57644;48.416;-123.374;2022-11-15T05:10:40;17;16;
70249;PMS5003;57644;48.416;-123.374;2022-11-15T05:13:11;15;13;
70249;PMS5003;57644;48.416;-123.374;2022-11-15T05:15:41;18;16;
70249;PMS5003;57644;48.416;-123.374;2022-11-15T05:18:11;17;16;
70249;PMS5003;57644;48.416;-123.374;2022-11-15T05:20:42;16;15;
70249;PMS5003;57644;48.416;-123.374;2022-11-15T05:23:12;19;18;
70249;PMS5003;57644;48.416;-123.374;2022-11-15T05:25:43;18;18;
70249;PMS5003;57644;48.416;-123.374;2022-11-15T05:28:13;18;18;
70249;PMS5003;57644;48.416;-123.374;2022-11-15T05:30:44;17;17;
70249;PMS5003;57644;48.416;-123.374;2022-11-15T05:33:14;18;17;
70249;PMS5003;57644;48.416;-123.374;2022-11-15T05:35:45;18;18;
70249;PMS5003;57644;48.416;-123.374;2022-11-15T05:38:15;22;20;
70249;PMS5003;57644;48.416;-123.374;2022-11-15T05:40:45;21;19;
70249;PMS5003;57644;48.416;-123.374;2022-11-15T05:43:16;20;20;
70249;PMS5003;57644;48.416;-123.374;2022-11-15T05:45:47;25;24;
70249;PMS5003;57644;48.416;-123.374;2022-11-15T05:48:17;22;22;
70249;PMS5003;57644;48.416;-123.374;2022-11-15T05:50:47;22;21;
70249;PMS5003;57644;48.416;-123.374;2022-11-15T05:53:18;20;19;
70249;PMS5003;57644;48.416;-123.374;2022-11-15T05:55:48;20;19;
70249;PMS5003;57644;48.416;-123.374;2022-11-15T05:58:19;23;21;
70249;PMS5003;57644;48.416;-123.374;2022-11-15T06:00:48;25;24;
70249;PMS5003;57644;48.416;-123.374;2022-11-15T06:03:19;28;26;
70249;PMS5003;57644;48.416;-123.374;2022-11-15T06:05:49;24;24;
70249;PMS5003;57644;48.416;-123.374;2022-11-15T06:08:20;24;22;
70249;PMS5003;57644;48.416;-123.374;2022-11-15T06:10:50;22;22;
70249;PMS5003;57644;48.416;-123.374;2022-11-15T06:13:20;27;26;
70249;PMS5003;57644;48.416;-123.374;2022-11-15T06:15:52;25;23;
70249;PMS5003;57644;48.416;-123.374;2022-11-15T06:18:21;24;22;
70249;PMS5003;57644;48.416;-123.374;2022-11-15T06:20:52;31;30;
70249;PMS5003;57644;48.416;-123.374;2022-11-15T06:23:21;25;25;
70249;PMS5003;57644;48.416;-123.374;2022-11-15T06:25:52;28;26;
70249;PMS5003;57644;48.416;-123.374;2022-11-15T06:28:22;33;31;
70249;PMS5003;57644;48.416;-123.374;2022-11-15T06:30:53;29;29;
70249;PMS5003;57644;48.416;-123.374;2022-11-15T06:33:23;23;23;
70249;PMS5003;57644;48.416;-123.374;2022-11-15T06:35:53;32;30;
70249;PMS5003;57644;48.416;-123.374;2022-11-15T06:38:24;30;27;
70249;PMS5003;57644;48.416;-123.374;2022-11-15T06:40:54;31;31;
70249;PMS5003;57644;48.416;-123.374;2022-11-15T06:43:25;34;29;
70249;PMS5003;57644;48.416;-123.374;2022-11-15T06:45:56;30;29;
70249;PMS5003;57644;48.416;-123.374;2022-11-15T06:48:25;30;29;
70249;PMS5003;57644;48.416;-123.374;2022-11-15T06:50:56;31;27;
70249;PMS5003;57644;48.416;-123.374;2022-11-15T06:53:26;28;28;
70249;PMS5003;57644;48.416;-123.374;2022-11-15T06:55:58;30;30;
70249;PMS5003;57644;48.416;-123.374;2022-11-15T06:58:27;26;26;
70249;PMS5003;57644;48.416;-123.374;2022-11-15T07:00:59;29;27;
70249;PMS5003;57644;48.416;-123.374;2022-11-15T07:03:28;25;24;
70249;PMS5003;57644;48.416;-123.374;2022-11-15T07:05:59;29;28;
70249;PMS5003;57644;48.416;-123.374;2022-11-15T07:08:29;30;30;
70249;PMS5003;57644;48.416;-123.374;2022-11-15T07:10:59;31;28;
70249;PMS5003;57644;48.416;-123.374;2022-11-15T07:13:30;24;24;
70249;PMS5003;57644;48.416;-123.374;2022-11-15T07:16:01;33;33;
70249;PMS5003;57644;48.416;-123.374;2022-11-15T07:18:30;30;30;
70249;PMS5003;57644;48.416;-123.374;2022-11-15T07:21:02;35;34;
70249;PMS5003;57644;48.416;-123.374;2022-11-15T07:23:32;24;24;
70249;PMS5003;57644;48.416;-123.374;2022-11-15T07:26:02;29;28;
70249;PMS5003;57644;48.416;-123.374;2022-11-15T07:28:33;32;32;
70249;PMS5003;57644;48.416;-123.374;2022-11-15T07:31:04;33;32;
70249;PMS5003;57644;48.416;-123.374;2022-11-15T07:33:34;33;31;
70249;PMS5003;57644;48.416;-123.374;2022-11-15T07:36:05;29;27;
70249;PMS5003;57644;48.416;-123.374;2022-11-15T07:38:34;26;26;
70249;PMS5003;57644;48.416;-123.374;2022-11-15T07:41:06;30;29;
70249;PMS5003;57644;48.416;-123.374;2022-11-15T07:43:35;29;27;
70249;PMS5003;57644;48.416;-123.374;2022-11-15T07:46:06;30;30;
70249;PMS5003;57644;48.416;-123.374;2022-11-15T07:48:36;31;30;
70249;PMS5003;57644;48.416;-123.374;2022-11-15T07:51:06;30;29;
70249;PMS5003;57644;48.416;-123.374;2022-11-15T07:53:37;34;34;
70249;PMS5003;57644;48.416;-123.374;2022-11-15T07:56:07;28;28;
70249;PMS5003;57644;48.416;-123.374;2022-11-15T07:58:38;35;34;
70249;PMS5003;57644;48.416;-123.374;2022-11-15T08:01:09;40;37;
70249;PMS5003;57644;48.416;-123.374;2022-11-15T08:03:39;37;36;
70249;PMS5003;57644;48.416;-123.374;2022-11-15T08:06:09;35;34;
70249;PMS5003;57644;48.416;-123.374;2022-11-15T08:08:39;30;30;
70249;PMS5003;57644;48.416;-123.374;2022-11-15T08:11:10;36;35;
70249;PMS5003;57644;48.416;-123.374;2022-11-15T08:13:50;30;30;
70249;PMS5003;57644;48.416;-123.374;2022-11-15T08:16:12;29;28;
70249;PMS5003;57644;48.416;-123.374;2022-11-15T08:18:42;35;33;
70249;PMS5003;57644;48.416;-123.374;2022-11-15T08:21:14;25;24;
70249;PMS5003;57644;48.416;-123.374;2022-11-15T08:23:44;26;24;
70249;PMS5003;57644;48.416;-123.374;2022-11-15T08:26:15;24;24;
70249;PMS5003;57644;48.416;-123.374;2022-11-15T08:28:45;24;24;
70249;PMS5003;57644;48.416;-123.374;2022-11-15T08:31:17;27;25;
70249;PMS5003;57644;48.416;-123.374;2022-11-15T08:33:50;29;26;
70249;PMS5003;57644;48.416;-123.374;2022-11-15T08:36:17;27;26;
70249;PMS5003;57644;48.416;-123.374;2022-11-15T08:38:48;25;24;
70249;PMS5003;57644;48.416;-123.374;2022-11-15T08:41:22;26;26;
70249;PMS5003;57644;48.416;-123.374;2022-11-15T08:43:49;27;25;
70249;PMS5003;57644;48.416;-123.374;2022-11-15T08:46:19;24;24;
70249;PMS5003;57644;48.416;-123.374;2022-11-15T08:48:50;29;28;
70249;PMS5003;57644;48.416;-123.374;2022-11-15T08:51:21;25;25;
70249;PMS5003;57644;48.416;-123.374;2022-11-15T08:53:51;26;26;
70249;PMS5003;57644;48.416;-123.374;2022-11-15T08:56:22;31;30;
70249;PMS5003;57644;48.416;-123.374;2022-11-15T08:58:53;30;28;
70249;PMS5003;57644;48.416;-123.374;2022-11-15T09:01:23;28;26;
70249;PMS5003;57644;48.416;-123.374;2022-11-15T09:03:53;24;23;
70249;PMS5003;57644;48.416;-123.374;2022-11-15T09:06:23;29;28;
70249;PMS5003;57644;48.416;-123.374;2022-11-15T09:08:53;24;24;
70249;PMS5003;57644;48.416;-123.374;2022-11-15T09:11:24;25;25;
70249;PMS5003;57644;48.416;-123.374;2022-11-15T09:13:54;27;27;
70249;PMS5003;57644;48.416;-123.374;2022-11-15T09:16:24;23;21;
70249;PMS5003;57644;48.416;-123.374;2022-11-15T09:18:54;25;24;
70249;PMS5003;57644;48.416;-123.374;2022-11-15T09:21:25;33;30;
70249;PMS5003;57644;48.416;-123.374;2022-11-15T09:23:55;22;22;
70249;PMS5003;57644;48.416;-123.374;2022-11-15T09:26:26;26;24;
70249;PMS5003;57644;48.416;-123.374;2022-11-15T09:28:56;25;24;
70249;PMS5003;57644;48.416;-123.374;2022-11-15T09:31:27;19;18;
70249;PMS5003;57644;48.416;-123.374;2022-11-15T09:33:57;21;20;
70249;PMS5003;57644;48.416;-123.374;2022-11-15T09:36:28;29;26;
70249;PMS5003;57644;48.416;-123.374;2022-11-15T09:38:58;23;22;
70249;PMS5003;57644;48.416;-123.374;2022-11-15T09:41:34;21;21;
70249;PMS5003;57644;48.416;-123.374;2022-11-15T09:44:04;24;23;
70249;PMS5003;57644;48.416;-123.374;2022-11-15T09:46:32;23;23;
70249;PMS5003;57644;48.416;-123.374;2022-11-15T09:49:01;24;24;
70249;PMS5003;57644;48.416;-123.374;2022-11-15T09:51:32;28;26;
70249;PMS5003;57644;48.416;-123.374;2022-11-15T09:54:04;25;23;
70249;PMS5003;57644;48.416;-123.374;2022-11-15T09:56:35;21;21;
70249;PMS5003;57644;48.416;-123.374;2022-11-15T09:59:07;21;21;
70249;PMS5003;57644;48.416;-123.374;2022-11-15T10:01:36;24;24;
70249;PMS5003;57644;48.416;-123.374;2022-11-15T10:04:04;24;23;
70249;PMS5003;57644;48.416;-123.374;2022-11-15T10:06:34;28;27;
70249;PMS5003;57644;48.416;-123.374;2022-11-15T10:09:06;27;26;
70249;PMS5003;57644;48.416;-123.374;2022-11-15T10:11:39;28;27;
70249;PMS5003;57644;48.416;-123.374;2022-11-15T10:14:08;25;25;
70249;PMS5003;57644;48.416;-123.374;2022-11-15T10:19:07;26;26;
70249;PMS5003;57644;48.416;-123.374;2022-11-15T10:21:39;27;26;
70249;PMS5003;57644;48.416;-123.374;2022-11-15T10:24:10;24;23;
70249;PMS5003;57644;48.416;-123.374;2022-11-15T10:26:37;29;27;
70249;PMS5003;57644;48.416;-123.374;2022-11-15T10:29:08;28;26;
70249;PMS5003;57644;48.416;-123.374;2022-11-15T10:31:39;29;27;
70249;PMS5003;57644;48.416;-123.374;2022-11-15T10:34:11;29;28;
70249;PMS5003;57644;48.416;-123.374;2022-11-15T10:36:39;30;29;
70249;PMS5003;57644;48.416;-123.374;2022-11-15T10:39:11;28;26;
70249;PMS5003;57644;48.416;-123.374;2022-11-15T10:41:41;35;33;
70249;PMS5003;57644;48.416;-123.374;2022-11-15T10:44:12;27;27;
70249;PMS5003;57644;48.416;-123.374;2022-11-15T10:46:41;32;31;
70249;PMS5003;57644;48.416;-123.374;2022-11-15T10:49:13;32;30;
70249;PMS5003;57644;48.416;-123.374;2022-11-15T10:51:44;28;26;
70249;PMS5003;57644;48.416;-123.374;2022-11-15T10:54:14;28;27;
70249;PMS5003;57644;48.416;-123.374;2022-11-15T10:56:43;37;33;
70249;PMS5003;57644;48.416;-123.374;2022-11-15T10:59:15;33;32;
70249;PMS5003;57644;48.416;-123.374;2022-11-15T11:01:47;32;31;
70249;PMS5003;57644;48.416;-123.374;2022-11-15T11:04:14;32;31;
70249;PMS5003;57644;48.416;-123.374;2022-11-15T11:06:48;31;29;
70249;PMS5003;57644;48.416;-123.374;2022-11-15T11:11:46;28;27;
70249;PMS5003;57644;48.416;-123.374;2022-11-15T11:14:17;28;27;
70249;PMS5003;57644;48.416;-123.374;2022-11-15T11:16:47;32;31;
70249;PMS5003;57644;48.416;-123.374;2022-11-15T11:19:21;28;28;
70249;PMS5003;57644;48.416;-123.374;2022-11-15T11:21:49;32;30;
70249;PMS5003;57644;48.416;-123.374;2022-11-15T11:24:19;32;30;
70249;PMS5003;57644;48.416;-123.374;2022-11-15T11:26:49;34;33;
70249;PMS5003;57644;48.416;-123.374;2022-11-15T11:29:21;33;31;
70249;PMS5003;57644;48.416;-123.374;2022-11-15T11:31:50;28;26;
70249;PMS5003;57644;48.416;-123.374;2022-11-15T11:34:19;24;24;
70249;PMS5003;57644;48.416;-123.374;2022-11-15T11:36:51;30;27;
70249;PMS5003;57644;48.416;-123.374;2022-11-15T11:39:25;27;26;
70249;PMS5003;57644;48.416;-123.374;2022-11-15T11:41:53;31;30;
70249;PMS5003;57644;48.416;-123.374;2022-11-15T11:44:27;28;28;
70249;PMS5003;57644;48.416;-123.374;2022-11-15T11:46:53;30;29;
70249;PMS5003;57644;48.416;-123.374;2022-11-15T11:49:23;32;30;
70249;PMS5003;57644;48.416;-123.374;2022-11-15T11:51:54;23;22;
70249;PMS5003;57644;48.416;-123.374;2022-11-15T11:54:23;27;25;
70249;PMS5003;57644;48.416;-123.374;2022-11-15T11:56:52;29;28;
70249;PMS5003;57644;48.416;-123.374;2022-11-15T11:59:25;29;28;
70249;PMS5003;57644;48.416;-123.374;2022-11-15T12:01:53;29;27;
70249;PMS5003;57644;48.416;-123.374;2022-11-15T12:04:26;29;27;
70249;PMS5003;57644;48.416;-123.374;2022-11-15T12:06:56;29;28;
70249;PMS5003;57644;48.416;-123.374;2022-11-15T12:09:27;28;27;
70249;PMS5003;57644;48.416;-123.374;2022-11-15T12:11:56;29;28;
70249;PMS5003;57644;48.416;-123.374;2022-11-15T12:14:28;23;23;
70249;PMS5003;57644;48.416;-123.374;2022-11-15T12:16:57;26;25;
70249;PMS5003;57644;48.416;-123.374;2022-11-15T12:19:26;30;28;
70249;PMS5003;57644;48.416;-123.374;2022-11-15T12:21:59;29;28;
70249;PMS5003;57644;48.416;-123.374;2022-11-15T12:24:27;36;33;
70249;PMS5003;57644;48.416;-123.374;2022-11-15T12:26:57;35;33;
70249;PMS5003;57644;48.416;-123.374;2022-11-15T12:29:28;30;28;
70249;PMS5003;57644;48.416;-123.374;2022-11-15T12:31:58;31;30;
70249;PMS5003;57644;48.416;-123.374;2022-11-15T12:34:34;36;31;
70249;PMS5003;57644;48.416;-123.374;2022-11-15T12:36:58;30;27;
70249;PMS5003;57644;48.416;-123.374;2022-11-15T12:47:02;27;26;
70249;PMS5003;57644;48.416;-123.374;2022-11-15T12:52:04;35;33;
70249;PMS5003;57644;48.416;-123.374;2022-11-15T13:04:35;29;28;
70249;PMS5003;57644;48.416;-123.374;2022-11-15T13:07:05;30;28;
70249;PMS5003;57644;48.416;-123.374;2022-11-15T13:12:07;31;29;
70249;PMS5003;57644;48.416;-123.374;2022-11-15T13:14:40;28;28;
70249;PMS5003;57644;48.416;-123.374;2022-11-15T13:17:15;27;26;
70249;PMS5003;57644;48.416;-123.374;2022-11-15T13:19:37;27;26;
70249;PMS5003;57644;48.416;-123.374;2022-11-15T13:22:09;30;29;
70249;PMS5003;57644;48.416;-123.374;2022-11-15T13:24:37;29;26;
70249;PMS5003;57644;48.416;-123.374;2022-11-15T13:27:11;27;26;
70249;PMS5003;57644;48.416;-123.374;2022-11-15T13:29:38;30;29;
70249;PMS5003;57644;48.416;-123.374;2022-11-15T13:32:10;25;24;
70249;PMS5003;57644;48.416;-123.374;2022-11-15T13:34:43;24;23;
70249;PMS5003;57644;48.416;-123.374;2022-11-15T13:37:12;30;30;
70249;PMS5003;57644;48.416;-123.374;2022-11-15T13:39:40;24;23;
70249;PMS5003;57644;48.416;-123.374;2022-11-15T13:42:13;28;26;
70249;PMS5003;57644;48.416;-123.374;2022-11-15T13:44:41;30;27;
70249;PMS5003;57644;48.416;-123.374;2022-11-15T13:47:13;24;23;
70249;PMS5003;57644;48.416;-123.374;2022-11-15T13:49:42;27;26;
70249;PMS5003;57644;48.416;-123.374;2022-11-15T13:52:14;29;26;
70249;PMS5003;57644;48.416;-123.374;2022-11-15T13:54:44;29;27;
70249;PMS5003;57644;48.416;-123.374;2022-11-15T13:57:14;27;26;
70249;PMS5003;57644;48.416;-123.374;2022-11-15T13:59:45;26;25;
70249;PMS5003;57644;48.416;-123.374;2022-11-15T14:02:18;30;29;
70249;PMS5003;57644;48.416;-123.374;2022-11-15T14:04:46;29;28;
70249;PMS5003;57644;48.416;-123.374;2022-11-15T14:07:17;25;24;
70249;PMS5003;57644;48.416;-123.374;2022-11-15T14:09:46;24;22;
70249;PMS5003;57644;48.416;-123.374;2022-11-15T14:14:47;35;30;
70249;PMS5003;57644;48.416;-123.374;2022-11-15T14:17:20;30;27;
70249;PMS5003;57644;48.416;-123.374;2022-11-15T14:19:47;31;31;
70249;PMS5003;57644;48.416;-123.374;2022-11-15T14:22:19;27;24;
70249;PMS5003;57644;48.416;-123.374;2022-11-15T14:27:21;25;24;
70249;PMS5003;57644;48.416;-123.374;2022-11-15T14:29:50;21;21;
70249;PMS5003;57644;48.416;-123.374;2022-11-15T14:32:21;21;20;
70249;PMS5003;57644;48.416;-123.374;2022-11-15T14:34:54;21;21;
70249;PMS5003;57644;48.416;-123.374;2022-11-15T14:37:22;21;21;
70249;PMS5003;57644;48.416;-123.374;2022-11-15T14:39:54;30;28;
70249;PMS5003;57644;48.416;-123.374;2022-11-15T14:42:23;24;23;
70249;PMS5003;57644;48.416;-123.374;2022-11-15T14:44:52;21;21;
70249;PMS5003;57644;48.416;-123.374;2022-11-15T14:47:23;23;22;
70249;PMS5003;57644;48.416;-123.374;2022-11-15T14:49:53;24;23;
70249;PMS5003;57644;48.416;-123.374;2022-11-15T14:52:25;24;23;
70249;PMS5003;57644;48.416;-123.374;2022-11-15T14:54:55;27;26;
70249;PMS5003;57644;48.416;-123.374;2022-11-15T14:57:25;30;29;
70249;PMS5003;57644;48.416;-123.374;2022-11-15T14:59:56;26;26;
70249;PMS5003;57644;48.416;-123.374;2022-11-15T15:02:26;30;29;
70249;PMS5003;57644;48.416;-123.374;2022-11-15T15:04:56;28;27;
70249;PMS5003;57644;48.416;-123.374;2022-11-15T15:07:27;28;27;
70249;PMS5003;57644;48.416;-123.374;2022-11-15T15:10:03;30;28;
70249;PMS5003;57644;48.416;-123.374;2022-11-15T15:12:33;24;23;
70249;PMS5003;57644;48.416;-123.374;2022-11-15T15:14:58;28;27;
70249;PMS5003;57644;48.416;-123.374;2022-11-15T15:17:29;32;30;
70249;PMS5003;57644;48.416;-123.374;2022-11-15T15:19:59;31;31;
70249;PMS5003;57644;48.416;-123.374;2022-11-15T15:22:30;28;27;
70249;PMS5003;57644;48.416;-123.374;2022-11-15T15:25:01;27;24;
70249;PMS5003;57644;48.416;-123.374;2022-11-15T15:27:31;24;24;
70249;PMS5003;57644;48.416;-123.374;2022-11-15T15:30:02;25;23;
70249;PMS5003;57644;48.416;-123.374;2022-11-15T15:32:33;23;22;
70249;PMS5003;57644;48.416;-123.374;2022-11-15T15:35:03;30;30;
70249;PMS5003;57644;48.416;-123.374;2022-11-15T15:37:34;22;21;
70249;PMS5003;57644;48.416;-123.374;2022-11-15T15:40:10;32;27;
70249;PMS5003;57644;48.416;-123.374;2022-11-15T15:42:35;29;28;
70249;PMS5003;57644;48.416;-123.374;2022-11-15T15:45:06;25;25;
70249;PMS5003;57644;48.416;-123.374;2022-11-15T15:47:36;23;22;
70249;PMS5003;57644;48.416;-123.374;2022-11-15T15:52:37;29;25;
70249;PMS5003;57644;48.416;-123.374;2022-11-15T15:55:07;28;28;
70249;PMS5003;57644;48.416;-123.374;2022-11-15T15:57:37;27;25;
70249;PMS5003;57644;48.416;-123.374;2022-11-15T16:00:09;28;26;
70249;PMS5003;57644;48.416;-123.374;2022-11-15T16:02:38;29;28;
70249;PMS5003;57644;48.416;-123.374;2022-11-15T16:05:08;29;29;
70249;PMS5003;57644;48.416;-123.374;2022-11-15T16:07:40;28;27;
70249;PMS5003;57644;48.416;-123.374;2022-11-15T16:10:15;27;26;
70249;PMS5003;57644;48.416;-123.374;2022-11-15T16:12:39;28;28;
70249;PMS5003;57644;48.416;-123.374;2022-11-15T16:15:09;32;31;
70249;PMS5003;57644;48.416;-123.374;2022-11-15T16:17:43;30;28;
70249;PMS5003;57644;48.416;-123.374;2022-11-15T16:20:19;31;29;
70249;PMS5003;57644;48.416;-123.374;2022-11-15T16:22:41;27;26;
70249;PMS5003;57644;48.416;-123.374;2022-11-15T16:25:12;24;24;
70249;PMS5003;57644;48.416;-123.374;2022-11-15T16:27:43;30;29;
70249;PMS5003;57644;48.416;-123.374;2022-11-15T16:30:14;33;32;
70249;PMS5003;57644;48.416;-123.374;2022-11-15T16:32:44;30;26;
70249;PMS5003;57644;48.416;-123.374;2022-11-15T16:35:15;23;22;
70249;PMS5003;57644;48.416;-123.374;2022-11-15T16:37:45;26;26;